createdAt,value
2019-01-29T00:00:42.806Z,45.40
2019-01-29T00:03:14.702Z,48.60
2019-01-29T00:05:46.075Z,48.00
2019-01-29T00:08:17.316Z,49.00
2019-01-29T00:10:48.719Z,51.00
2019-01-29T00:13:19.975Z,50.60
2019-01-29T00:15:51.571Z,49.00
2019-01-29T00:18:22.863Z,47.60
2019-01-29T00:20:54.362Z,49.80
2019-01-29T00:23:25.758Z,51.20
2019-01-29T00:25:57.547Z,47.20
2019-01-29T00:28:28.910Z,51.60
2019-01-29T00:31:00.345Z,49.00
2019-01-29T00:33:31.947Z,52.40
2019-01-29T00:36:03.749Z,48.60
2019-01-29T00:38:35.050Z,49.00
2019-01-29T00:41:06.940Z,52.80
2019-01-29T00:43:38.336Z,50.20
2019-01-29T00:46:09.642Z,50.60
2019-01-29T00:48:41.078Z,54.60
2019-01-29T00:51:12.897Z,52.00
2019-01-29T00:53:44.749Z,48.80
2019-01-29T00:56:16.501Z,53.20
2019-01-29T00:58:47.916Z,55.40
2019-01-29T01:01:19.608Z,51.40
2019-01-29T01:03:51.184Z,60.40
2019-01-29T01:06:22.895Z,67.80
2019-01-29T01:08:54.422Z,73.60
2019-01-29T01:11:26.273Z,65.40
2019-01-29T01:13:57.905Z,71.40
2019-01-29T01:16:29.769Z,65.80
2019-01-29T01:19:01.675Z,68.20
2019-01-29T01:21:33.398Z,72.80
2019-01-29T01:24:05.455Z,75.80
2019-01-29T01:26:36.835Z,71.40
2019-01-29T01:29:08.366Z,74.40
2019-01-29T01:31:40.159Z,75.80
2019-01-29T01:34:11.667Z,78.00
2019-01-29T01:36:43.444Z,80.75
2019-01-29T01:39:14.940Z,81.00
2019-01-29T01:41:46.580Z,86.75
2019-01-29T01:44:18.387Z,83.25
2019-01-29T01:46:49.867Z,89.75
2019-01-29T01:49:21.713Z,70.80
2019-01-29T01:51:53.161Z,76.60
2019-01-29T01:54:24.780Z,81.00
2019-01-29T01:56:56.109Z,79.50
2019-01-29T01:59:27.410Z,92.00
2019-01-29T02:01:59.161Z,90.75
2019-01-29T02:04:30.728Z,94.00
2019-01-29T02:07:02.149Z,97.25
2019-01-29T02:09:33.753Z,88.00
2019-01-29T02:12:05.229Z,97.00
2019-01-29T02:14:36.956Z,97.00
2019-01-29T02:17:09.023Z,115.75
2019-01-29T02:19:40.507Z,118.50
2019-01-29T02:22:11.941Z,110.25
2019-01-29T02:24:43.590Z,103.75
2019-01-29T02:27:14.937Z,99.00
2019-01-29T02:29:46.141Z,100.75
2019-01-29T02:32:17.676Z,101.00
2019-01-29T02:34:49.158Z,98.25
2019-01-29T02:37:20.734Z,95.75
2019-01-29T02:39:53.481Z,98.25
2019-01-29T02:42:25.447Z,91.50
2019-01-29T02:44:56.897Z,88.00
2019-01-29T02:47:28.639Z,94.00
2019-01-29T02:50:00.698Z,93.25
2019-01-29T02:52:32.560Z,95.50
2019-01-29T02:55:05.010Z,102.00
2019-01-29T02:57:36.234Z,100.25
2019-01-29T03:00:10.209Z,94.00
2019-01-29T03:02:41.626Z,99.75
2019-01-29T03:05:13.745Z,108.25
2019-01-29T03:07:45.598Z,110.50
2019-01-29T03:10:19.121Z,103.00
2019-01-29T03:12:50.822Z,100.50
2019-01-29T03:15:27.836Z,93.00
2019-01-29T03:17:59.610Z,95.50
2019-01-29T03:20:31.197Z,94.40
2019-01-29T03:23:03.019Z,94.60
2019-01-29T03:25:35.088Z,96.50
2019-01-29T03:28:07.661Z,95.25
2019-01-29T03:30:40.556Z,96.00
2019-01-29T03:33:12.157Z,94.50
2019-01-29T03:35:43.696Z,93.00
2019-01-29T03:38:15.115Z,91.80
2019-01-29T03:40:46.669Z,87.00
2019-01-29T03:43:18.508Z,93.20
2019-01-29T03:45:49.977Z,89.20
2019-01-29T03:48:21.274Z,82.00
2019-01-29T03:50:53.258Z,77.20
2019-01-29T03:53:24.524Z,76.60
2019-01-29T03:55:55.712Z,76.20
2019-01-29T03:58:27.283Z,72.20
2019-01-29T04:00:59.008Z,74.80
2019-01-29T04:03:30.609Z,74.40
2019-01-29T04:06:02.283Z,76.80
2019-01-29T04:08:33.673Z,69.80
2019-01-29T04:11:05.608Z,67.60
2019-01-29T04:13:36.943Z,69.40
2019-01-29T04:16:08.774Z,64.80
2019-01-29T04:18:40.580Z,67.00
2019-01-29T04:21:12.107Z,67.20
2019-01-29T04:23:47.735Z,68.60
2019-01-29T04:26:17.066Z,63.40
2019-01-29T04:28:48.625Z,60.40
2019-01-29T04:31:20.388Z,64.80
2019-01-29T04:33:51.754Z,65.80
2019-01-29T04:36:24.728Z,60.80
2019-01-29T04:38:55.972Z,62.40
2019-01-29T04:41:27.229Z,56.60
2019-01-29T04:43:58.751Z,55.80
2019-01-29T04:46:30.553Z,59.20
2019-01-29T04:49:02.040Z,61.20
2019-01-29T04:51:33.611Z,58.20
2019-01-29T04:54:05.424Z,62.80
2019-01-29T04:56:36.962Z,55.40
2019-01-29T04:59:08.649Z,61.40
2019-01-29T05:01:39.804Z,64.20
2019-01-29T05:04:11.421Z,54.40
2019-01-29T05:06:42.988Z,61.20
2019-01-29T05:09:14.685Z,63.40
2019-01-29T05:11:45.914Z,66.60
2019-01-29T05:14:18.174Z,65.80
2019-01-29T05:16:49.796Z,68.40
2019-01-29T05:19:21.732Z,72.20
2019-01-29T05:21:53.352Z,64.20
2019-01-29T05:24:24.911Z,71.00
2019-01-29T05:26:56.896Z,71.00
2019-01-29T05:29:28.971Z,66.60
2019-01-29T05:32:00.341Z,69.40
2019-01-29T05:34:31.927Z,80.20
2019-01-29T05:37:03.229Z,77.60
2019-01-29T05:39:34.481Z,72.80
2019-01-29T05:42:06.421Z,69.40
2019-01-29T05:44:37.664Z,69.80
2019-01-29T05:47:09.805Z,64.20
2019-01-29T05:49:41.521Z,67.20
2019-01-29T05:52:13.295Z,60.60
2019-01-29T05:54:44.731Z,65.60
2019-01-29T05:57:16.227Z,61.80
2019-01-29T05:59:47.701Z,59.60
2019-01-29T06:02:19.324Z,66.00
2019-01-29T06:04:50.563Z,72.00
2019-01-29T06:07:22.011Z,62.40
2019-01-29T06:09:53.211Z,55.80
2019-01-29T06:12:24.741Z,63.60
2019-01-29T06:14:56.180Z,58.00
2019-01-29T06:17:27.731Z,64.20
2019-01-29T06:19:59.271Z,58.80
2019-01-29T06:22:31.078Z,61.40
2019-01-29T06:25:02.390Z,54.60
2019-01-29T06:27:34.237Z,50.20
2019-01-29T06:30:06.148Z,55.00
2019-01-29T06:32:37.874Z,54.80
2019-01-29T06:35:11.698Z,53.60
2019-01-29T06:37:43.475Z,56.80
2019-01-29T06:40:17.556Z,59.60
2019-01-29T06:42:51.105Z,59.20
2019-01-29T06:45:22.858Z,47.20
2019-01-29T06:47:54.446Z,53.80
2019-01-29T06:50:27.046Z,49.00
2019-01-29T06:52:58.439Z,50.00
2019-01-29T06:55:29.971Z,53.20
2019-01-29T06:58:01.684Z,53.80
2019-01-29T07:00:34.096Z,53.60
2019-01-29T07:03:06.078Z,50.20
2019-01-29T07:05:37.812Z,55.60
2019-01-29T07:08:10.447Z,52.00
2019-01-29T07:10:44.153Z,54.80
2019-01-29T07:13:15.463Z,52.80
2019-01-29T07:16:08.556Z,56.00
2019-01-29T07:19:05.307Z,49.80
2019-01-29T07:21:37.160Z,50.20
2019-01-29T07:24:09.045Z,53.80
2019-01-29T07:26:40.993Z,53.60
2019-01-29T07:29:12.494Z,54.60
2019-01-29T07:31:44.186Z,50.40
2019-01-29T07:34:15.731Z,48.20
2019-01-29T07:36:48.017Z,42.00
2019-01-29T07:39:19.940Z,45.20
2019-01-29T07:41:51.464Z,45.80
2019-01-29T07:44:23.025Z,43.20
2019-01-29T07:46:54.574Z,46.20
2019-01-29T07:49:26.121Z,45.40
2019-01-29T07:51:57.304Z,45.40
2019-01-29T07:54:33.475Z,43.60
2019-01-29T07:57:03.038Z,43.20
2019-01-29T07:59:34.333Z,42.40
2019-01-29T08:02:06.342Z,40.60
2019-01-29T08:04:38.012Z,40.40
2019-01-29T08:07:09.766Z,44.20
2019-01-29T08:09:41.493Z,43.20
2019-01-29T08:12:12.967Z,44.60
2019-01-29T08:14:44.873Z,44.00
2019-01-29T08:17:16.378Z,46.20
2019-01-29T08:19:47.778Z,47.80
2019-01-29T08:22:20.325Z,47.40
2019-01-29T08:25:01.026Z,53.20
2019-01-29T08:27:25.255Z,50.60
2019-01-29T08:29:57.044Z,51.20
2019-01-29T08:32:28.562Z,41.20
2019-01-29T08:35:00.369Z,41.00
2019-01-29T08:37:31.892Z,39.00
2019-01-29T08:40:03.219Z,40.00
2019-01-29T08:42:34.309Z,39.00
2019-01-29T08:45:06.515Z,39.40
2019-01-29T08:47:37.482Z,42.60
2019-01-29T08:50:12.042Z,42.60
2019-01-29T08:52:43.251Z,41.00
2019-01-29T08:55:15.276Z,41.20
2019-01-29T08:57:46.789Z,40.80
2019-01-29T09:00:20.489Z,38.20
2019-01-29T09:02:52.360Z,38.20
2019-01-29T09:05:24.402Z,31.20
2019-01-29T09:07:55.764Z,36.00
2019-01-29T09:10:27.268Z,36.20
2019-01-29T09:12:58.823Z,38.60
2019-01-29T09:15:30.541Z,37.80
2019-01-29T09:18:02.163Z,31.20
2019-01-29T09:20:33.817Z,35.20
2019-01-29T09:23:05.163Z,36.00
2019-01-29T09:25:37.237Z,38.20
2019-01-29T09:28:08.782Z,37.40
2019-01-29T09:30:40.389Z,37.00
2019-01-29T09:33:12.057Z,33.00
2019-01-29T09:35:44.015Z,34.20
2019-01-29T09:38:15.568Z,33.00
2019-01-29T09:40:47.056Z,29.80
2019-01-29T09:43:18.632Z,31.20
2019-01-29T09:45:50.192Z,32.60
2019-01-29T09:48:21.491Z,35.60
2019-01-29T09:50:53.109Z,37.20
2019-01-29T09:53:24.382Z,34.80
2019-01-29T09:55:56.209Z,32.60
2019-01-29T09:58:27.946Z,36.00
2019-01-29T10:00:59.380Z,34.00
2019-01-29T10:03:30.807Z,35.20
2019-01-29T10:06:02.539Z,35.20
2019-01-29T10:08:33.953Z,30.80
2019-01-29T10:11:05.788Z,33.80
2019-01-29T10:13:37.953Z,34.60
2019-01-29T10:16:10.322Z,31.60
2019-01-29T10:18:41.578Z,35.00
2019-01-29T10:21:13.038Z,34.60
2019-01-29T10:23:44.661Z,32.60
2019-01-29T10:26:15.933Z,30.40
2019-01-29T10:28:47.361Z,32.60
2019-01-29T10:31:19.932Z,32.20
2019-01-29T10:33:51.836Z,34.20
2019-01-29T10:36:23.920Z,30.40
2019-01-29T10:38:55.473Z,32.20
2019-01-29T10:41:27.182Z,30.40
2019-01-29T10:43:58.482Z,34.00
2019-01-29T10:46:30.101Z,31.20
2019-01-29T10:49:02.067Z,34.80
2019-01-29T10:51:33.842Z,30.40
2019-01-29T10:54:05.206Z,31.60
2019-01-29T10:56:36.744Z,32.00
2019-01-29T10:59:08.453Z,30.40
2019-01-29T11:01:40.049Z,32.20
2019-01-29T11:04:12.307Z,31.20
2019-01-29T11:06:43.836Z,32.00
2019-01-29T11:09:15.676Z,30.00
2019-01-29T11:11:47.445Z,30.00
2019-01-29T11:14:18.777Z,30.80
2019-01-29T11:16:49.868Z,30.00
2019-01-29T11:19:22.143Z,31.00
2019-01-29T11:21:55.875Z,31.00
2019-01-29T11:24:27.451Z,32.80
2019-01-29T11:26:58.846Z,32.20
2019-01-29T11:29:30.359Z,34.00
2019-01-29T11:32:01.923Z,35.00
2019-01-29T11:34:33.511Z,32.60
2019-01-29T11:37:05.064Z,32.00
2019-01-29T11:39:36.596Z,32.20
2019-01-29T11:42:07.919Z,36.00
2019-01-29T11:44:39.564Z,32.20
2019-01-29T11:47:11.104Z,33.80
2019-01-29T11:49:42.675Z,32.80
2019-01-29T11:52:14.768Z,31.60
2019-01-29T11:54:46.149Z,31.40
2019-01-29T11:57:17.676Z,28.40
2019-01-29T11:59:49.053Z,35.00
2019-01-29T12:02:28.056Z,35.80
2019-01-29T12:04:53.636Z,35.00
2019-01-29T12:07:24.883Z,37.20
2019-01-29T12:09:56.628Z,36.20
2019-01-29T12:12:28.066Z,32.80
2019-01-29T12:14:59.628Z,38.60
2019-01-29T12:17:31.383Z,40.20
2019-01-29T12:20:03.116Z,41.60
2019-01-29T12:22:34.580Z,42.40
2019-01-29T12:25:06.933Z,44.40
2019-01-29T12:27:38.164Z,55.20
2019-01-29T12:30:15.743Z,95.00
2019-01-29T12:32:47.368Z,161.00
2019-01-29T12:35:18.683Z,209.80
2019-01-29T12:37:50.373Z,229.40
2019-01-29T12:40:21.638Z,278.40
2019-01-29T12:42:53.107Z,225.40
2019-01-29T12:45:24.951Z,204.50
2019-01-29T12:47:56.508Z,194.25
2019-01-29T12:50:28.498Z,159.00
2019-01-29T12:53:11.344Z,143.75
2019-01-29T12:55:42.912Z,124.75
2019-01-29T12:58:14.648Z,68.80
2019-01-29T13:00:50.503Z,69.20
2019-01-29T13:03:22.166Z,68.40
2019-01-29T13:05:53.548Z,75.00
2019-01-29T13:08:25.361Z,74.00
2019-01-29T13:10:57.454Z,78.60
2019-01-29T13:13:30.279Z,75.60
2019-01-29T13:16:01.886Z,85.80
2019-01-29T13:18:33.082Z,84.60
2019-01-29T13:21:05.910Z,98.40
2019-01-29T13:23:37.440Z,95.60
2019-01-29T13:26:09.174Z,92.20
2019-01-29T13:28:40.746Z,97.20
2019-01-29T13:31:12.464Z,97.50
2019-01-29T13:33:44.108Z,100.75
2019-01-29T13:36:15.838Z,97.75
2019-01-29T13:38:47.227Z,103.50
2019-01-29T13:41:18.660Z,103.00
2019-01-29T13:43:50.138Z,107.50
2019-01-29T13:46:23.346Z,107.00
2019-01-29T13:48:54.915Z,111.50
2019-01-29T13:51:26.494Z,113.75
2019-01-29T13:53:58.201Z,117.00
2019-01-29T13:59:37.818Z,126.75
2019-01-29T14:02:09.701Z,124.75
2019-01-29T14:04:41.143Z,127.75
2019-01-29T14:07:12.459Z,135.75
2019-01-29T14:09:44.091Z,144.00
2019-01-29T14:12:15.589Z,155.25
2019-01-29T14:14:47.167Z,141.25
2019-01-29T14:17:18.654Z,165.00
2019-01-29T14:19:50.301Z,157.75
2019-01-29T14:22:21.989Z,164.75
2019-01-29T14:24:53.302Z,156.50
2019-01-29T14:27:24.687Z,166.75
2019-01-29T14:29:56.341Z,159.00
2019-01-29T14:32:27.682Z,153.25
2019-01-29T14:34:59.182Z,149.25
2019-01-29T14:37:32.532Z,137.75
2019-01-29T14:40:14.049Z,149.00
2019-01-29T14:42:46.414Z,140.25
2019-01-29T14:45:22.491Z,141.00
2019-01-29T14:47:53.965Z,138.50
2019-01-29T14:50:26.260Z,150.00
2019-01-29T14:52:57.295Z,151.50
2019-01-29T14:55:29.669Z,143.25
2019-01-29T14:58:01.236Z,146.75
2019-01-29T15:00:33.900Z,146.00
2019-01-29T15:03:05.429Z,163.25
2019-01-29T15:05:37.276Z,157.00
2019-01-29T15:08:08.705Z,150.00
2019-01-29T15:10:40.428Z,153.00
2019-01-29T15:13:13.914Z,169.00
2019-01-29T15:15:50.906Z,170.25
2019-01-29T15:18:26.309Z,164.00
2019-01-29T15:20:58.787Z,171.00
2019-01-29T15:23:30.322Z,175.25
2019-01-29T15:26:02.082Z,189.75
2019-01-29T15:28:33.375Z,202.75
2019-01-29T15:31:05.270Z,195.75
2019-01-29T15:33:36.637Z,188.25
2019-01-29T15:36:08.716Z,185.00
2019-01-29T15:38:41.440Z,194.50
2019-01-29T15:41:13.127Z,193.75
2019-01-29T15:43:44.746Z,197.00
2019-01-29T15:46:16.244Z,169.25
2019-01-29T15:48:47.826Z,172.25
2019-01-29T15:51:19.477Z,173.50
2019-01-29T15:53:51.098Z,174.25
2019-01-29T15:56:23.078Z,175.00
2019-01-29T15:58:54.686Z,170.25
2019-01-29T16:01:26.403Z,174.50
2019-01-29T16:03:58.074Z,175.25
2019-01-29T16:06:29.721Z,161.00
2019-01-29T16:09:01.302Z,172.75
2019-01-29T16:11:34.438Z,168.25
2019-01-29T16:14:06.458Z,156.75
2019-01-29T16:16:38.243Z,159.50
2019-01-29T16:19:10.283Z,167.00
2019-01-29T16:21:41.702Z,167.00
2019-01-29T16:24:13.230Z,155.25
2019-01-29T16:26:44.875Z,172.00
2019-01-29T16:29:16.645Z,150.25
2019-01-29T16:31:48.217Z,150.75
2019-01-29T16:34:19.807Z,145.50
2019-01-29T16:36:51.357Z,161.00
2019-01-29T16:39:22.902Z,147.25
2019-01-29T16:41:54.194Z,150.50
2019-01-29T16:44:25.584Z,156.25
2019-01-29T16:46:57.000Z,160.75
2019-01-29T16:49:28.412Z,182.00
2019-01-29T16:52:00.280Z,184.00
2019-01-29T16:54:33.087Z,147.75
2019-01-29T16:57:04.901Z,158.00
2019-01-29T16:59:36.288Z,145.00
2019-01-29T17:02:07.826Z,145.75
2019-01-29T17:04:39.534Z,136.25
2019-01-29T17:07:12.038Z,118.75
2019-01-29T17:09:43.807Z,117.50
2019-01-29T17:12:15.504Z,103.25
2019-01-29T17:14:47.059Z,111.75
2019-01-29T17:17:18.728Z,105.25
2019-01-29T17:19:50.335Z,97.00
2019-01-29T17:22:22.113Z,106.00
2019-01-29T17:24:53.542Z,112.75
2019-01-29T17:27:25.056Z,113.25
2019-01-29T17:29:56.900Z,104.75
2019-01-29T17:32:30.423Z,112.50
2019-01-29T17:35:02.379Z,116.75
2019-01-29T17:37:35.018Z,111.50
2019-01-29T17:40:07.816Z,112.50
2019-01-29T17:42:39.292Z,118.75
2019-01-29T17:45:13.154Z,108.25
2019-01-29T17:47:45.249Z,105.50
2019-01-29T17:50:20.918Z,102.00
2019-01-29T17:52:52.800Z,115.50
2019-01-29T17:55:24.452Z,114.50
2019-01-29T17:57:56.396Z,120.00
2019-01-29T18:00:31.772Z,102.25
2019-01-29T18:03:03.629Z,112.00
2019-01-29T18:05:35.307Z,109.50
2019-01-29T18:08:07.320Z,125.75
2019-01-29T18:10:40.048Z,117.75
2019-01-29T18:13:12.028Z,112.25
2019-01-29T18:15:43.737Z,113.00
2019-01-29T18:18:16.233Z,106.75
2019-01-29T18:20:47.863Z,112.50
2019-01-29T18:23:19.806Z,102.00
2019-01-29T18:25:51.125Z,109.75
2019-01-29T18:28:22.535Z,93.50
2019-01-29T18:30:53.972Z,93.25
2019-01-29T18:33:25.850Z,88.50
2019-01-29T18:35:57.617Z,98.00
2019-01-29T18:38:28.903Z,96.75
2019-01-29T18:41:00.440Z,95.75
2019-01-29T18:43:31.821Z,99.75
2019-01-29T18:46:04.926Z,92.25
2019-01-29T18:48:37.049Z,107.00
2019-01-29T18:51:09.009Z,102.00
2019-01-29T18:53:40.567Z,96.50
2019-01-29T18:56:12.432Z,107.50
2019-01-29T18:58:44.024Z,100.75
2019-01-29T19:01:19.415Z,108.00
2019-01-29T19:03:51.476Z,109.00
2019-01-29T19:06:23.062Z,106.50
2019-01-29T19:08:54.954Z,109.00
2019-01-29T19:11:26.492Z,103.75
2019-01-29T19:13:58.282Z,106.00
2019-01-29T19:16:29.901Z,120.25
2019-01-29T19:19:01.547Z,127.75
2019-01-29T19:21:32.854Z,124.25
2019-01-29T19:24:05.222Z,108.50
2019-01-29T19:26:36.818Z,113.75
2019-01-29T19:29:08.341Z,109.25
2019-01-29T19:31:39.692Z,102.00
2019-01-29T19:34:11.525Z,98.25
2019-01-29T19:36:43.012Z,94.75
2019-01-29T19:39:14.807Z,92.25
2019-01-29T19:41:46.390Z,95.50
2019-01-29T19:44:18.038Z,93.00
2019-01-29T19:46:49.660Z,97.00
2019-01-29T19:49:21.442Z,87.50
2019-01-29T19:51:52.853Z,98.25
2019-01-29T19:54:24.972Z,97.50
2019-01-29T19:56:56.631Z,91.25
2019-01-29T19:59:28.029Z,92.00
2019-01-29T20:01:59.622Z,95.50
2019-01-29T20:04:31.354Z,95.00
2019-01-29T20:07:02.961Z,91.00
2019-01-29T20:09:34.685Z,93.50
2019-01-29T20:12:06.443Z,96.25
2019-01-29T20:14:38.194Z,102.00
2019-01-29T20:17:09.782Z,104.00
2019-01-29T20:19:41.715Z,107.25
2019-01-29T20:22:13.780Z,101.25
2019-01-29T20:24:46.290Z,100.25
2019-01-29T20:27:18.045Z,97.50
2019-01-29T20:29:49.849Z,92.50
2019-01-29T20:32:21.453Z,93.25
2019-01-29T20:34:53.083Z,96.75
2019-01-29T20:37:24.951Z,98.50
2019-01-29T20:39:57.685Z,89.00
2019-01-29T20:42:29.461Z,91.00
2019-01-29T20:45:00.846Z,82.75
2019-01-29T20:47:32.597Z,93.80
2019-01-29T20:50:04.933Z,87.80
2019-01-29T20:52:36.736Z,84.60
2019-01-29T20:55:08.458Z,86.00
2019-01-29T20:57:39.987Z,88.75
2019-01-29T21:00:32.284Z,88.00
2019-01-29T21:03:03.836Z,81.60
2019-01-29T21:05:36.035Z,83.00
2019-01-29T21:08:08.369Z,79.40
2019-01-29T21:10:39.961Z,90.00
2019-01-29T21:13:11.657Z,89.25
2019-01-29T21:15:43.108Z,81.00
2019-01-29T21:18:14.813Z,92.25
2019-01-29T21:20:56.656Z,87.00
2019-01-29T21:23:20.970Z,82.25
2019-01-29T21:25:52.676Z,91.00
2019-01-29T21:28:24.127Z,90.75
2019-01-29T21:30:55.855Z,93.25
2019-01-29T21:33:27.398Z,82.75
2019-01-29T21:35:58.742Z,82.50
2019-01-29T21:38:30.535Z,87.75
2019-01-29T21:41:03.157Z,84.00
2019-01-29T21:43:34.824Z,94.50
2019-01-29T21:46:06.754Z,82.00
2019-01-29T21:48:38.586Z,87.00
2019-01-29T21:51:10.053Z,82.75
2019-01-29T21:53:41.892Z,94.75
2019-01-29T21:56:13.228Z,89.25
2019-01-29T21:58:44.533Z,89.50
2019-01-29T22:01:15.884Z,91.50
2019-01-29T22:03:47.297Z,91.50
2019-01-29T22:06:18.821Z,90.75
2019-01-29T22:08:51.535Z,84.25
2019-01-29T22:11:22.967Z,91.75
2019-01-29T22:13:54.267Z,85.80
2019-01-29T22:16:25.654Z,90.25
2019-01-29T22:18:57.251Z,90.00
2019-01-29T22:21:29.038Z,79.50
2019-01-29T22:24:00.836Z,90.40
2019-01-29T22:26:32.126Z,88.50
2019-01-29T22:29:04.000Z,78.20
2019-01-29T22:31:35.423Z,75.80
2019-01-29T22:34:07.448Z,82.00
2019-01-29T22:36:39.174Z,84.00
2019-01-29T22:39:11.041Z,82.80
2019-01-29T22:41:42.779Z,80.20
2019-01-29T22:44:14.196Z,77.20
2019-01-29T22:46:45.743Z,75.40
2019-01-29T22:49:17.273Z,66.60
2019-01-29T22:51:48.847Z,81.00
2019-01-29T22:54:20.375Z,74.80
2019-01-29T22:56:51.834Z,65.60
2019-01-29T22:59:32.930Z,72.60
2019-01-29T23:01:56.535Z,68.60
2019-01-29T23:04:30.908Z,74.80
2019-01-29T23:07:12.458Z,77.00
2019-01-29T23:09:43.843Z,69.60
2019-01-29T23:12:15.178Z,75.40
2019-01-29T23:14:46.658Z,74.60
2019-01-29T23:17:18.616Z,74.80
2019-01-29T23:19:50.373Z,72.60
2019-01-29T23:22:22.126Z,76.20
2019-01-29T23:24:53.961Z,70.80
2019-01-29T23:27:25.825Z,74.00
2019-01-29T23:29:57.399Z,75.40
2019-01-29T23:32:29.684Z,75.60
2019-01-29T23:35:01.264Z,76.00
2019-01-29T23:37:32.928Z,62.20
2019-01-29T23:40:05.782Z,71.00
2019-01-29T23:42:37.731Z,72.00
2019-01-29T23:45:10.732Z,78.80
2019-01-29T23:47:42.642Z,64.20
2019-01-29T23:50:14.775Z,77.00
2019-01-29T23:52:46.670Z,69.80
2019-01-29T23:55:18.613Z,64.00
2019-01-29T23:57:50.148Z,71.20
